Time;durP1;ratioP1;P1;durP2;ratioP2;P2;SDS_P1;SDS_P2;PMS_P1;PMS_P2;Temp;Humidity;BMP_temperature;BMP_pressure;BME280_temperature;BME280_humidity;BME280_pressure;Samples;Min_cycle;Max_cycle;Signal;HPM_P1;HPM_P2
2023/01/07 00:05:24;;;;;;;15.00;12.40;;;;;;;4.66;100.00;99733.96;435931;1278;141898;-65
2023/01/07 00:15:30;;;;;;;15.10;11.90;;;;;;;4.57;100.00;99741.94;435220;1284;199594;-65
2023/01/07 00:25:36;;;;;;;18.30;11.70;;;;;;;4.56;100.00;99746.63;435955;1277;145964;-65
2023/01/07 00:35:43;;;;;;;14.30;12.10;;;;;;;4.66;100.00;99757.73;435841;1284;141869;-65
2023/01/07 00:45:49;;;;;;;14.60;10.80;;;;;;;4.71;100.00;99761.34;435183;1278;142883;-65
2023/01/07 00:55:55;;;;;;;14.10;10.70;;;;;;;4.70;100.00;99779.59;435802;1278;152742;-65
2023/01/07 01:06:04;;;;;;;11.80;9.90;;;;;;;4.70;100.00;99782.22;435919;1291;142309;-65
2023/01/07 01:16:14;;;;;;;13.10;10.60;;;;;;;4.68;100.00;99784.56;435322;1278;199750;-65
2023/01/07 01:26:20;;;;;;;15.10;11.20;;;;;;;4.66;100.00;99773.88;435987;1284;143117;-65
2023/01/07 01:36:26;;;;;;;13.60;10.90;;;;;;;4.62;100.00;99766.71;421854;1285;144584;-65
2023/01/07 01:46:37;;;;;;;14.10;10.50;;;;;;;4.24;100.00;99766.82;435909;1284;201740;-66
2023/01/07 01:56:48;;;;;;;12.90;11.50;;;;;;;3.77;100.00;99771.70;434086;1277;146765;-65
2023/01/07 02:06:59;;;;;;;16.20;14.20;;;;;;;3.38;100.00;99774.15;435261;1282;144319;-66
2023/01/07 02:17:15;;;;;;;17.30;13.20;;;;;;;3.07;100.00;99772.15;435991;1276;143036;-66
2023/01/07 02:27:34;;;;;;;15.20;13.20;;;;;;;2.84;100.00;99773.89;435181;1290;201907;-65
2023/01/07 02:37:51;;;;;;;31.60;18.40;;;;;;;2.70;100.00;99776.70;423629;1288;142781;-64
2023/01/07 02:48:00;;;;;;;33.30;22.70;;;;;;;2.54;100.00;99777.31;435911;1284;143735;-67
2023/01/07 02:58:26;;;;;;;29.10;17.50;;;;;;;2.46;100.00;99777.02;435168;1283;141945;-64
2023/01/07 03:09:00;;;;;;;52.60;19.80;;;;;;;2.54;100.00;99785.09;435959;1284;201910;-65
2023/01/07 03:19:09;;;;;;;49.00;19.80;;;;;;;2.60;100.00;99796.50;435200;1283;142676;-65
2023/01/07 03:29:18;;;;;;;34.00;19.50;;;;;;;2.53;100.00;99806.04;435900;1284;143215;-65
2023/01/07 03:39:26;;;;;;;34.20;19.70;;;;;;;2.40;100.00;99807.94;419532;1277;142717;-66
2023/01/07 03:49:35;;;;;;;29.80;20.20;;;;;;;2.43;100.00;99800.26;435938;1284;142412;-64
2023/01/07 03:59:41;;;;;;;28.80;20.60;;;;;;;2.49;100.00;99793.67;435921;1289;143113;-65
2023/01/07 04:09:49;;;;;;;26.00;19.20;;;;;;;2.40;100.00;99787.37;435194;1290;142491;-65
2023/01/07 04:19:54;;;;;;;26.20;20.90;;;;;;;2.46;100.00;99801.02;435853;1284;145511;-65
2023/01/07 04:30:00;;;;;;;29.10;20.00;;;;;;;2.61;100.00;99803.05;435875;1284;143534;-65
2023/01/07 04:40:08;;;;;;;29.20;19.90;;;;;;;2.70;100.00;99799.50;429963;1290;142679;-65
2023/01/07 04:50:14;;;;;;;27.60;20.70;;;;;;;2.82;100.00;99802.12;435887;1283;143196;-65
2023/01/07 05:00:20;;;;;;;32.70;20.30;;;;;;;2.89;100.00;99814.02;435187;1284;194825;-65
2023/01/07 05:10:26;;;;;;;35.30;22.80;;;;;;;2.91;100.00;99815.51;435894;1283;142713;-66
2023/01/07 05:20:31;;;;;;;33.40;21.00;;;;;;;2.95;100.00;99816.09;435955;1284;142652;-65
2023/01/07 05:30:38;;;;;;;36.40;25.80;;;;;;;2.96;100.00;99810.52;434671;1284;143404;-64
2023/01/07 05:40:46;;;;;;;35.40;26.30;;;;;;;2.85;100.00;99802.20;421536;1281;145125;-65
2023/01/07 05:50:55;;;;;;;31.90;23.50;;;;;;;2.77;100.00;99812.80;435957;1284;142242;-65
2023/01/07 06:01:00;;;;;;;33.80;23.70;;;;;;;2.72;100.00;99815.52;435212;1289;143192;-65
2023/01/07 06:11:08;;;;;;;39.20;25.10;;;;;;;2.78;100.00;99817.95;435915;1289;143895;-65
2023/01/07 06:21:15;;;;;;;36.20;20.60;;;;;;;2.95;100.00;99824.39;435195;1285;142716;-65
2023/01/07 06:31:20;;;;;;;34.80;17.20;;;;;;;3.09;100.00;99839.04;435816;1288;141873;-65
2023/01/07 06:41:26;;;;;;;46.50;14.30;;;;;;;3.16;100.00;99849.04;433580;1284;143729;-66
2023/01/07 06:51:32;;;;;;;37.00;14.10;;;;;;;3.23;100.00;99858.36;435159;1284;144799;-65
2023/01/07 07:01:38;;;;;;;43.50;15.90;;;;;;;3.32;100.00;99861.20;435907;1292;142693;-66
2023/01/07 07:11:44;;;;;;;26.80;16.90;;;;;;;3.45;100.00;99863.77;435984;1290;142570;-66
2023/01/07 07:21:50;;;;;;;35.50;20.30;;;;;;;3.63;100.00;99858.05;435216;1289;144011;-65
2023/01/07 07:31:55;;;;;;;38.50;18.70;;;;;;;3.79;100.00;99864.82;435150;1289;142795;-65
2023/01/07 07:42:04;;;;;;;32.80;19.80;;;;;;;3.99;100.00;99871.62;433982;1288;142981;-65
2023/01/07 07:52:10;;;;;;;35.20;18.60;;;;;;;4.12;100.00;99870.88;435303;1291;196861;-66
2023/01/07 08:02:18;;;;;;;32.70;17.70;;;;;;;4.31;100.00;99869.20;435961;1281;143057;-65
2023/01/07 08:12:23;;;;;;;30.90;17.40;;;;;;;4.50;100.00;99874.97;435195;1292;143961;-65
2023/01/07 08:22:29;;;;;;;31.40;16.60;;;;;;;4.62;100.00;99882.36;435994;1285;142270;-66
2023/01/07 08:32:36;;;;;;;25.20;15.10;;;;;;;4.78;100.00;99889.30;435946;1292;143762;-65
2023/01/07 08:42:42;;;;;;;25.30;14.90;;;;;;;4.85;100.00;99895.45;430712;1284;144399;-65
2023/01/07 08:52:48;;;;;;;23.60;15.60;;;;;;;4.86;100.00;99889.52;435971;1285;142407;-64
2023/01/07 09:02:54;;;;;;;18.40;12.90;;;;;;;4.98;100.00;99879.56;435943;1291;143080;-66
2023/01/07 09:12:59;;;;;;;18.80;14.30;;;;;;;5.20;100.00;99878.07;435147;1283;143094;-66
2023/01/07 09:23:05;;;;;;;21.80;15.00;;;;;;;5.30;100.00;99878.39;433016;1283;143484;-66
2023/01/07 09:33:11;;;;;;;21.80;14.20;;;;;;;5.43;100.00;99872.17;435267;1289;143398;-65
2023/01/07 09:43:21;;;;;;;24.30;16.20;;;;;;;5.62;100.00;99867.99;425886;1283;142911;-65
2023/01/07 09:53:30;;;;;;;17.50;14.00;;;;;;;5.70;100.00;99865.39;435888;1284;142140;-65
2023/01/07 10:03:50;;;;;;;19.80;15.40;;;;;;;5.62;100.00;99862.59;430787;1283;143260;-66
2023/01/07 10:14:14;;;;;;;23.20;16.20;;;;;;;5.67;100.00;99862.24;421463;1283;148102;-66
2023/01/07 10:24:26;;;;;;;22.60;17.50;;;;;;;5.84;100.00;99871.13;419849;1283;141776;-65
2023/01/07 10:34:43;;;;;;;20.80;18.30;;;;;;;5.96;100.00;99873.06;426261;1291;142259;-65
2023/01/07 10:45:04;;;;;;;19.00;16.00;;;;;;;6.05;100.00;99853.27;435896;1286;142592;-66
2023/01/07 10:55:24;;;;;;;23.10;18.70;;;;;;;6.33;100.00;99846.02;435234;1277;142742;-66
2023/01/07 11:05:38;;;;;;;19.30;17.00;;;;;;;6.73;100.00;99829.22;435929;1281;144045;-66
2023/01/07 11:15:50;;;;;;;19.70;16.50;;;;;;;6.78;100.00;99821.83;435210;1284;145600;-65
2023/01/07 11:26:05;;;;;;;19.90;16.40;;;;;;;6.76;100.00;99818.64;435936;1280;144048;-67
2023/01/07 11:36:11;;;;;;;23.60;18.70;;;;;;;7.02;100.00;99809.48;435384;1284;142878;-66
2023/01/07 11:46:19;;;;;;;26.50;21.80;;;;;;;7.11;100.00;99791.80;435880;1277;143863;-66
2023/01/07 11:56:33;;;;;;;23.30;19.30;;;;;;;7.06;100.00;99791.38;435878;1284;142510;-66
2023/01/07 12:06:41;;;;;;;19.70;16.30;;;;;;;6.95;100.00;99793.25;435180;1291;142491;-66
2023/01/07 12:16:49;;;;;;;18.90;14.70;;;;;;;6.96;100.00;99778.60;435930;1285;199090;-66
2023/01/07 12:27:00;;;;;;;22.40;18.50;;;;;;;7.14;100.00;99760.16;432773;1284;142389;-66
2023/01/07 12:37:13;;;;;;;18.60;15.60;;;;;;;7.22;100.00;99732.44;435150;1284;198078;-66
2023/01/07 12:47:22;;;;;;;22.70;16.50;;;;;;;6.90;100.00;99723.33;435918;1277;151633;-66
2023/01/07 12:57:40;;;;;;;18.40;14.70;;;;;;;6.83;100.00;99719.48;435102;1282;141964;-66
2023/01/07 13:07:53;;;;;;;16.50;13.30;;;;;;;6.99;100.00;99717.02;435912;1280;141526;-65
2023/01/07 13:18:07;;;;;;;15.30;13.30;;;;;;;7.16;100.00;99722.63;435936;1284;142541;-65
2023/01/07 13:28:30;;;;;;;17.70;14.70;;;;;;;7.19;100.00;99715.23;435530;1284;142236;-66
2023/01/07 13:38:50;;;;;;;20.10;15.00;;;;;;;7.16;100.00;99707.86;432208;1284;143330;-66
2023/01/07 13:48:56;;;;;;;24.70;19.20;;;;;;;7.12;100.00;99709.93;435192;1283;143109;-66
2023/01/07 13:59:02;;;;;;;20.80;17.30;;;;;;;7.08;100.00;99717.98;435948;1283;187777;-66
2023/01/07 14:09:33;;;;;;;24.30;19.50;;;;;;;7.02;100.00;99725.23;435961;1283;196542;-65
2023/01/07 14:19:48;;;;;;;24.70;16.40;;;;;;;6.81;100.00;99725.83;435669;1283;208923;-66
2023/01/07 14:29:56;;;;;;;20.80;17.20;;;;;;;6.63;100.00;99730.14;435949;1284;142726;-66
2023/01/07 14:40:59;;;;;;;22.20;18.70;;;;;;;6.49;100.00;99736.84;424955;1284;144007;-66
2023/01/07 14:51:27;;;;;;;22.70;18.00;;;;;;;6.33;100.00;99739.98;434106;1278;142895;-66
2023/01/07 15:01:44;;;;;;;26.20;21.50;;;;;;;6.19;100.00;99727.55;435594;1291;142874;-67
2023/01/07 15:22:32;;;;;;;29.80;23.10;;;;;;;6.04;100.00;99713.41;435391;1286;211992;-65
2023/01/07 15:32:48;;;;;;;36.70;26.60;;;;;;;6.00;100.00;99711.30;435972;1291;143360;-66
2023/01/07 15:42:57;;;;;;;33.90;25.20;;;;;;;5.96;100.00;99706.25;435034;1284;142851;-66
2023/01/07 15:53:16;;;;;;;28.50;24.00;;;;;;;5.90;100.00;99702.86;435932;1284;143062;-66
2023/01/07 16:03:23;;;;;;;37.60;25.90;;;;;;;5.84;100.00;99697.59;435190;1283;142551;-66
2023/01/07 16:13:29;;;;;;;36.20;26.80;;;;;;;5.80;100.00;99697.21;435925;1285;142954;-66
2023/01/07 16:23:37;;;;;;;36.30;27.60;;;;;;;5.81;100.00;99700.79;435927;1277;142580;-66
2023/01/07 16:33:45;;;;;;;32.70;26.30;;;;;;;5.79;100.00;99694.10;435169;1284;141940;-66
2023/01/07 16:43:52;;;;;;;34.60;25.30;;;;;;;5.77;100.00;99688.46;435820;1284;143147;-65
2023/01/07 16:54:28;;;;;;;37.00;26.80;;;;;;;5.72;100.00;99683.27;435933;1284;142825;-67
2023/01/07 17:04:34;;;;;;;35.10;27.60;;;;;;;5.61;100.00;99680.46;435633;1284;208167;-65
2023/01/07 17:14:50;;;;;;;39.60;31.80;;;;;;;5.46;100.00;99684.71;435911;1277;141729;-65
2023/01/07 17:25:02;;;;;;;37.00;31.20;;;;;;;5.44;100.00;99683.55;435172;1284;142497;-65
2023/01/07 17:35:18;;;;;;;40.10;31.00;;;;;;;5.46;100.00;99679.14;435877;1284;142564;-66
2023/01/07 17:45:24;;;;;;;41.70;30.30;;;;;;;5.44;100.00;99669.52;435038;1291;143681;-64
2023/01/07 17:55:34;;;;;;;45.90;34.00;;;;;;;5.25;100.00;99664.05;435933;1283;146285;-65
2023/01/07 18:05:40;;;;;;;44.30;33.70;;;;;;;5.06;100.00;99668.78;435914;1284;143006;-66
2023/01/07 18:15:46;;;;;;;46.00;34.10;;;;;;;5.03;100.00;99664.38;435186;1283;142968;-64
2023/01/07 18:25:52;;;;;;;50.50;38.50;;;;;;;5.05;100.00;99665.17;433929;1283;143556;-66
2023/01/07 18:35:58;;;;;;;50.80;41.20;;;;;;;4.98;100.00;99673.09;433101;1286;141778;-65
2023/01/07 18:46:09;;;;;;;58.00;44.00;;;;;;;4.91;100.00;99673.70;429926;1278;143340;-64
2023/01/07 18:56:15;;;;;;;55.70;43.00;;;;;;;4.89;100.00;99665.96;435874;1283;142213;-64
2023/01/07 19:06:21;;;;;;;54.70;42.00;;;;;;;4.91;100.00;99655.99;435146;1277;144659;-65
2023/01/07 19:16:27;;;;;;;58.30;42.50;;;;;;;4.88;100.00;99652.15;420921;1277;142229;-64
2023/01/07 19:26:34;;;;;;;60.60;44.20;;;;;;;4.78;100.00;99643.52;420686;1284;142631;-66
2023/01/07 19:36:43;;;;;;;59.50;42.20;;;;;;;4.63;100.00;99638.03;435152;1284;142268;-65
2023/01/07 19:46:49;;;;;;;55.30;41.40;;;;;;;4.48;100.00;99635.98;435947;1284;142190;-65
2023/01/07 19:56:56;;;;;;;54.50;41.30;;;;;;;4.41;100.00;99620.64;435923;1288;142805;-65
2023/01/07 20:07:01;;;;;;;59.30;44.50;;;;;;;4.20;100.00;99613.45;435209;1286;202396;-65
2023/01/07 20:17:07;;;;;;;58.10;42.80;;;;;;;3.92;100.00;99604.60;433902;1280;196209;-64
2023/01/07 20:27:13;;;;;;;67.40;48.60;;;;;;;3.66;100.00;99599.09;419067;1277;143443;-65
2023/01/07 20:37:19;;;;;;;69.70;49.30;;;;;;;3.47;100.00;99602.02;419217;1277;142797;-65
2023/01/07 20:47:25;;;;;;;55.60;42.40;;;;;;;3.31;100.00;99599.95;432964;1283;142634;-66
2023/01/07 20:57:31;;;;;;;66.20;46.20;;;;;;;3.24;100.00;99590.70;435211;1284;142754;-66
2023/01/07 21:07:37;;;;;;;68.90;44.70;;;;;;;3.15;100.00;99599.95;435903;1276;142569;-66
2023/01/07 21:17:43;;;;;;;59.70;45.00;;;;;;;3.01;100.00;99600.08;435938;1285;142390;-66
2023/01/07 21:27:49;;;;;;;58.30;41.40;;;;;;;2.86;100.00;99601.27;421467;1284;142384;-66
2023/01/07 21:37:55;;;;;;;52.00;39.10;;;;;;;2.69;100.00;99588.65;435927;1276;142972;-67
2023/01/07 21:48:01;;;;;;;49.90;37.50;;;;;;;2.56;100.00;99588.87;435885;1291;142452;-67
2023/01/07 21:58:07;;;;;;;45.40;36.10;;;;;;;2.48;100.00;99575.47;435187;1284;143921;-66
2023/01/07 22:08:13;;;;;;;45.70;36.50;;;;;;;2.35;100.00;99568.77;435884;1282;143053;-65
2023/01/07 22:18:19;;;;;;;46.40;33.40;;;;;;;2.25;100.00;99558.20;435141;1281;142934;-66
2023/01/07 22:28:25;;;;;;;50.70;35.10;;;;;;;2.19;100.00;99563.39;432367;1281;143493;-66
2023/01/07 22:38:33;;;;;;;47.40;36.40;;;;;;;2.15;100.00;99558.16;435939;1284;143226;-65
2023/01/07 22:48:40;;;;;;;45.50;33.70;;;;;;;2.06;100.00;99550.12;435226;1285;143255;-66
2023/01/07 22:58:44;;;;;;;;;;;;;;;1.97;100.00;99535.36;435913;1284;142443;-66
2023/01/07 23:08:50;;;;;;;48.00;34.20;;;;;;;1.88;100.00;99529.07;436111;1290;127722;-65
2023/01/07 23:18:55;;;;;;;43.70;31.70;;;;;;;1.76;100.00;99516.81;435205;1289;142718;-65
2023/01/07 23:29:01;;;;;;;58.30;35.90;;;;;;;1.61;100.00;99503.23;428166;1276;146021;-66
2023/01/07 23:39:07;;;;;;;47.30;34.60;;;;;;;1.47;100.00;99485.02;435958;1285;142557;-65
2023/01/07 23:49:14;;;;;;;53.00;37.50;;;;;;;1.36;100.00;99477.21;435566;1285;212851;-65
2023/01/07 23:59:19;;;;;;;50.90;38.00;;;;;;;1.31;100.00;99466.46;433208;1282;142964;-65
